sensor_id;sensor_type;location;lat;lon;timestamp;P1;durP1;ratioP1;P2;durP2;ratioP2
21360;SDS011;10839;43.206;23.550;2023-08-20T00:01:58;7.50;;;5.90;;
21360;SDS011;10839;43.206;23.550;2023-08-20T00:04:27;7.05;;;5.75;;
21360;SDS011;10839;43.206;23.550;2023-08-20T00:06:55;7.75;;;5.78;;
21360;SDS011;10839;43.206;23.550;2023-08-20T00:09:21;10.38;;;6.00;;
21360;SDS011;10839;43.206;23.550;2023-08-20T00:11:47;8.75;;;5.82;;
21360;SDS011;10839;43.206;23.550;2023-08-20T00:14:16;7.65;;;5.90;;
21360;SDS011;10839;43.206;23.550;2023-08-20T00:16:42;7.15;;;5.90;;
21360;SDS011;10839;43.206;23.550;2023-08-20T00:19:09;7.20;;;6.13;;
21360;SDS011;10839;43.206;23.550;2023-08-20T00:21:39;9.23;;;5.97;;
21360;SDS011;10839;43.206;23.550;2023-08-20T00:24:08;8.73;;;5.85;;
21360;SDS011;10839;43.206;23.550;2023-08-20T00:26:34;10.05;;;5.65;;
21360;SDS011;10839;43.206;23.550;2023-08-20T00:29:00;7.25;;;5.93;;
21360;SDS011;10839;43.206;23.550;2023-08-20T00:31:26;6.50;;;5.72;;
21360;SDS011;10839;43.206;23.550;2023-08-20T00:33:52;7.75;;;5.47;;
21360;SDS011;10839;43.206;23.550;2023-08-20T00:36:17;10.55;;;6.03;;
21360;SDS011;10839;43.206;23.550;2023-08-20T00:38:43;8.32;;;5.85;;
21360;SDS011;10839;43.206;23.550;2023-08-20T00:41:09;7.85;;;5.80;;
21360;SDS011;10839;43.206;23.550;2023-08-20T00:43:36;7.10;;;5.70;;
21360;SDS011;10839;43.206;23.550;2023-08-20T00:46:01;6.32;;;5.72;;
21360;SDS011;10839;43.206;23.550;2023-08-20T00:48:28;6.97;;;5.75;;
21360;SDS011;10839;43.206;23.550;2023-08-20T00:50:55;9.02;;;5.80;;
21360;SDS011;10839;43.206;23.550;2023-08-20T00:53:22;9.40;;;6.00;;
21360;SDS011;10839;43.206;23.550;2023-08-20T00:55:48;12.82;;;5.95;;
21360;SDS011;10839;43.206;23.550;2023-08-20T00:58:14;9.20;;;5.40;;
21360;SDS011;10839;43.206;23.550;2023-08-20T01:00:40;6.93;;;5.47;;
21360;SDS011;10839;43.206;23.550;2023-08-20T01:03:07;7.05;;;5.90;;
21360;SDS011;10839;43.206;23.550;2023-08-20T01:05:33;8.70;;;5.35;;
21360;SDS011;10839;43.206;23.550;2023-08-20T01:13:27;8.32;;;5.53;;
21360;SDS011;10839;43.206;23.550;2023-08-20T01:15:53;8.40;;;5.60;;
21360;SDS011;10839;43.206;23.550;2023-08-20T01:18:19;8.32;;;6.80;;
21360;SDS011;10839;43.206;23.550;2023-08-20T01:20:51;7.18;;;5.93;;
21360;SDS011;10839;43.206;23.550;2023-08-20T01:23:38;11.75;;;6.45;;
21360;SDS011;10839;43.206;23.550;2023-08-20T01:28:53;7.97;;;6.05;;
21360;SDS011;10839;43.206;23.550;2023-08-20T01:31:20;6.25;;;5.65;;
21360;SDS011;10839;43.206;23.550;2023-08-20T01:33:46;9.20;;;6.03;;
21360;SDS011;10839;43.206;23.550;2023-08-20T01:36:12;6.53;;;5.55;;
21360;SDS011;10839;43.206;23.550;2023-08-20T01:38:40;6.63;;;5.55;;
21360;SDS011;10839;43.206;23.550;2023-08-20T01:41:06;9.55;;;6.10;;
21360;SDS011;10839;43.206;23.550;2023-08-20T01:43:32;9.98;;;6.13;;
21360;SDS011;10839;43.206;23.550;2023-08-20T01:45:58;10.00;;;5.50;;
21360;SDS011;10839;43.206;23.550;2023-08-20T01:48:25;10.85;;;5.93;;
21360;SDS011;10839;43.206;23.550;2023-08-20T01:50:50;7.47;;;5.78;;
21360;SDS011;10839;43.206;23.550;2023-08-20T01:53:16;7.32;;;6.00;;
21360;SDS011;10839;43.206;23.550;2023-08-20T01:55:42;7.72;;;6.22;;
21360;SDS011;10839;43.206;23.550;2023-08-20T01:58:08;8.00;;;5.75;;
21360;SDS011;10839;43.206;23.550;2023-08-20T02:00:34;5.90;;;5.13;;
21360;SDS011;10839;43.206;23.550;2023-08-20T02:03:00;9.48;;;6.82;;
21360;SDS011;10839;43.206;23.550;2023-08-20T02:05:26;11.43;;;6.53;;
21360;SDS011;10839;43.206;23.550;2023-08-20T02:07:52;8.55;;;5.60;;
21360;SDS011;10839;43.206;23.550;2023-08-20T02:10:19;9.43;;;5.75;;
21360;SDS011;10839;43.206;23.550;2023-08-20T02:12:46;8.65;;;5.82;;
21360;SDS011;10839;43.206;23.550;2023-08-20T02:15:12;6.72;;;5.68;;
21360;SDS011;10839;43.206;23.550;2023-08-20T02:17:38;8.32;;;6.13;;
21360;SDS011;10839;43.206;23.550;2023-08-20T02:20:04;7.72;;;5.57;;
21360;SDS011;10839;43.206;23.550;2023-08-20T02:22:31;8.40;;;6.28;;
21360;SDS011;10839;43.206;23.550;2023-08-20T02:24:56;11.57;;;6.18;;
21360;SDS011;10839;43.206;23.550;2023-08-20T02:27:22;7.80;;;6.25;;
21360;SDS011;10839;43.206;23.550;2023-08-20T02:29:48;8.23;;;6.32;;
21360;SDS011;10839;43.206;23.550;2023-08-20T02:32:14;7.70;;;5.97;;
21360;SDS011;10839;43.206;23.550;2023-08-20T02:34:40;10.38;;;5.60;;
21360;SDS011;10839;43.206;23.550;2023-08-20T02:37:06;9.07;;;6.07;;
21360;SDS011;10839;43.206;23.550;2023-08-20T02:39:32;7.18;;;6.00;;
21360;SDS011;10839;43.206;23.550;2023-08-20T02:41:57;10.02;;;6.28;;
21360;SDS011;10839;43.206;23.550;2023-08-20T02:44:26;9.13;;;5.75;;
21360;SDS011;10839;43.206;23.550;2023-08-20T02:46:53;10.82;;;6.53;;
21360;SDS011;10839;43.206;23.550;2023-08-20T02:49:19;6.60;;;5.93;;
21360;SDS011;10839;43.206;23.550;2023-08-20T02:51:45;11.50;;;6.22;;
21360;SDS011;10839;43.206;23.550;2023-08-20T02:54:10;9.15;;;6.78;;
21360;SDS011;10839;43.206;23.550;2023-08-20T02:56:36;8.98;;;6.43;;
21360;SDS011;10839;43.206;23.550;2023-08-20T02:59:02;8.48;;;5.68;;
21360;SDS011;10839;43.206;23.550;2023-08-20T03:01:28;9.07;;;6.43;;
21360;SDS011;10839;43.206;23.550;2023-08-20T03:03:55;7.40;;;6.20;;
21360;SDS011;10839;43.206;23.550;2023-08-20T03:06:21;7.72;;;6.03;;
21360;SDS011;10839;43.206;23.550;2023-08-20T03:08:47;8.70;;;5.95;;
21360;SDS011;10839;43.206;23.550;2023-08-20T03:11:14;6.70;;;6.00;;
21360;SDS011;10839;43.206;23.550;2023-08-20T03:13:40;8.63;;;6.30;;
21360;SDS011;10839;43.206;23.550;2023-08-20T03:16:06;8.95;;;6.20;;
21360;SDS011;10839;43.206;23.550;2023-08-20T03:18:32;11.20;;;6.57;;
21360;SDS011;10839;43.206;23.550;2023-08-20T03:20:58;10.48;;;6.47;;
21360;SDS011;10839;43.206;23.550;2023-08-20T03:23:23;10.70;;;6.47;;
21360;SDS011;10839;43.206;23.550;2023-08-20T03:25:49;9.30;;;6.60;;
21360;SDS011;10839;43.206;23.550;2023-08-20T03:28:17;12.57;;;6.35;;
21360;SDS011;10839;43.206;23.550;2023-08-20T03:30:44;11.15;;;6.40;;
21360;SDS011;10839;43.206;23.550;2023-08-20T03:33:13;8.40;;;6.10;;
21360;SDS011;10839;43.206;23.550;2023-08-20T03:35:40;10.02;;;6.65;;
21360;SDS011;10839;43.206;23.550;2023-08-20T03:38:05;8.55;;;6.57;;
21360;SDS011;10839;43.206;23.550;2023-08-20T03:40:31;10.50;;;6.10;;
21360;SDS011;10839;43.206;23.550;2023-08-20T03:42:57;9.20;;;5.90;;
21360;SDS011;10839;43.206;23.550;2023-08-20T03:45:23;7.95;;;6.22;;
21360;SDS011;10839;43.206;23.550;2023-08-20T03:47:49;7.65;;;6.30;;
21360;SDS011;10839;43.206;23.550;2023-08-20T03:50:16;11.00;;;7.00;;
21360;SDS011;10839;43.206;23.550;2023-08-20T03:52:44;7.18;;;6.00;;
21360;SDS011;10839;43.206;23.550;2023-08-20T03:55:10;9.75;;;6.40;;
21360;SDS011;10839;43.206;23.550;2023-08-20T03:57:36;8.45;;;6.40;;
21360;SDS011;10839;43.206;23.550;2023-08-20T04:00:04;8.88;;;6.30;;
21360;SDS011;10839;43.206;23.550;2023-08-20T04:02:40;10.98;;;6.38;;
21360;SDS011;10839;43.206;23.550;2023-08-20T04:05:06;8.95;;;6.30;;
21360;SDS011;10839;43.206;23.550;2023-08-20T04:07:32;10.30;;;6.72;;
21360;SDS011;10839;43.206;23.550;2023-08-20T04:09:59;7.47;;;6.20;;
21360;SDS011;10839;43.206;23.550;2023-08-20T04:12:24;11.73;;;6.68;;
21360;SDS011;10839;43.206;23.550;2023-08-20T04:14:50;10.02;;;6.65;;
21360;SDS011;10839;43.206;23.550;2023-08-20T04:17:16;9.50;;;6.82;;
21360;SDS011;10839;43.206;23.550;2023-08-20T04:19:42;7.97;;;7.13;;
21360;SDS011;10839;43.206;23.550;2023-08-20T04:22:08;7.05;;;6.35;;
21360;SDS011;10839;43.206;23.550;2023-08-20T04:24:34;8.70;;;6.40;;
21360;SDS011;10839;43.206;23.550;2023-08-20T04:26:59;7.63;;;6.50;;
21360;SDS011;10839;43.206;23.550;2023-08-20T04:29:27;9.05;;;6.45;;
21360;SDS011;10839;43.206;23.550;2023-08-20T04:31:53;11.27;;;6.78;;
21360;SDS011;10839;43.206;23.550;2023-08-20T04:34:19;10.00;;;6.30;;
21360;SDS011;10839;43.206;23.550;2023-08-20T04:36:49;8.18;;;6.07;;
21360;SDS011;10839;43.206;23.550;2023-08-20T04:39:17;9.30;;;6.60;;
21360;SDS011;10839;43.206;23.550;2023-08-20T04:41:48;10.98;;;6.55;;
21360;SDS011;10839;43.206;23.550;2023-08-20T04:44:16;7.72;;;6.93;;
21360;SDS011;10839;43.206;23.550;2023-08-20T04:46:42;8.18;;;6.55;;
21360;SDS011;10839;43.206;23.550;2023-08-20T04:49:09;15.10;;;7.30;;
21360;SDS011;10839;43.206;23.550;2023-08-20T04:51:38;7.72;;;6.38;;
21360;SDS011;10839;43.206;23.550;2023-08-20T04:54:04;8.88;;;7.00;;
21360;SDS011;10839;43.206;23.550;2023-08-20T04:56:30;9.25;;;7.15;;
21360;SDS011;10839;43.206;23.550;2023-08-20T04:58:56;10.45;;;6.88;;
21360;SDS011;10839;43.206;23.550;2023-08-20T05:01:57;17.45;;;6.65;;
21360;SDS011;10839;43.206;23.550;2023-08-20T05:04:36;11.30;;;6.50;;
21360;SDS011;10839;43.206;23.550;2023-08-20T05:07:02;13.30;;;6.22;;
21360;SDS011;10839;43.206;23.550;2023-08-20T05:09:28;11.68;;;7.20;;
21360;SDS011;10839;43.206;23.550;2023-08-20T05:11:55;8.57;;;6.57;;
21360;SDS011;10839;43.206;23.550;2023-08-20T05:14:21;8.30;;;6.55;;
21360;SDS011;10839;43.206;23.550;2023-08-20T05:16:47;8.77;;;7.05;;
21360;SDS011;10839;43.206;23.550;2023-08-20T05:19:12;7.43;;;6.70;;
21360;SDS011;10839;43.206;23.550;2023-08-20T05:21:38;11.65;;;6.70;;
21360;SDS011;10839;43.206;23.550;2023-08-20T05:24:04;10.48;;;7.10;;
21360;SDS011;10839;43.206;23.550;2023-08-20T05:26:30;11.68;;;7.65;;
21360;SDS011;10839;43.206;23.550;2023-08-20T05:28:56;11.90;;;7.05;;
21360;SDS011;10839;43.206;23.550;2023-08-20T05:31:22;9.45;;;6.90;;
21360;SDS011;10839;43.206;23.550;2023-08-20T05:33:49;11.43;;;7.32;;
21360;SDS011;10839;43.206;23.550;2023-08-20T05:36:15;10.70;;;6.55;;
21360;SDS011;10839;43.206;23.550;2023-08-20T05:38:43;8.55;;;7.63;;
21360;SDS011;10839;43.206;23.550;2023-08-20T05:41:09;9.38;;;6.55;;
21360;SDS011;10839;43.206;23.550;2023-08-20T05:43:35;9.60;;;7.45;;
21360;SDS011;10839;43.206;23.550;2023-08-20T05:46:04;11.93;;;6.68;;
21360;SDS011;10839;43.206;23.550;2023-08-20T05:48:30;9.02;;;6.28;;
21360;SDS011;10839;43.206;23.550;2023-08-20T05:50:55;6.57;;;5.57;;
21360;SDS011;10839;43.206;23.550;2023-08-20T05:53:22;8.48;;;5.53;;
21360;SDS011;10839;43.206;23.550;2023-08-20T05:55:48;7.28;;;4.95;;
21360;SDS011;10839;43.206;23.550;2023-08-20T05:58:14;10.27;;;5.43;;
21360;SDS011;10839;43.206;23.550;2023-08-20T06:00:40;18.70;;;15.57;;
21360;SDS011;10839;43.206;23.550;2023-08-20T06:03:06;25.92;;;21.48;;
21360;SDS011;10839;43.206;23.550;2023-08-20T06:05:34;24.83;;;19.85;;
21360;SDS011;10839;43.206;23.550;2023-08-20T06:08:00;17.70;;;14.10;;
21360;SDS011;10839;43.206;23.550;2023-08-20T06:10:26;17.35;;;14.35;;
21360;SDS011;10839;43.206;23.550;2023-08-20T06:12:52;30.50;;;26.70;;
21360;SDS011;10839;43.206;23.550;2023-08-20T06:15:19;17.95;;;12.38;;
21360;SDS011;10839;43.206;23.550;2023-08-20T06:17:44;12.63;;;8.68;;
21360;SDS011;10839;43.206;23.550;2023-08-20T06:20:10;10.95;;;6.22;;
21360;SDS011;10839;43.206;23.550;2023-08-20T06:22:37;8.80;;;5.22;;
21360;SDS011;10839;43.206;23.550;2023-08-20T06:25:04;6.63;;;5.07;;
21360;SDS011;10839;43.206;23.550;2023-08-20T06:27:30;6.75;;;5.18;;
21360;SDS011;10839;43.206;23.550;2023-08-20T06:29:56;6.40;;;4.50;;
21360;SDS011;10839;43.206;23.550;2023-08-20T06:32:23;8.50;;;4.43;;
21360;SDS011;10839;43.206;23.550;2023-08-20T06:34:49;5.22;;;3.88;;
21360;SDS011;10839;43.206;23.550;2023-08-20T06:37:15;20.02;;;15.18;;
21360;SDS011;10839;43.206;23.550;2023-08-20T06:39:41;9.38;;;7.32;;
21360;SDS011;10839;43.206;23.550;2023-08-20T06:42:06;7.38;;;5.90;;
21360;SDS011;10839;43.206;23.550;2023-08-20T06:44:33;9.18;;;6.90;;
21360;SDS011;10839;43.206;23.550;2023-08-20T06:47:00;11.38;;;7.20;;
21360;SDS011;10839;43.206;23.550;2023-08-20T06:49:26;9.70;;;6.20;;
21360;SDS011;10839;43.206;23.550;2023-08-20T06:51:52;6.00;;;4.43;;
21360;SDS011;10839;43.206;23.550;2023-08-20T06:54:18;7.78;;;4.97;;
21360;SDS011;10839;43.206;23.550;2023-08-20T06:56:43;5.90;;;4.10;;
21360;SDS011;10839;43.206;23.550;2023-08-20T06:59:09;6.32;;;3.70;;
21360;SDS011;10839;43.206;23.550;2023-08-20T07:01:35;7.50;;;3.95;;
21360;SDS011;10839;43.206;23.550;2023-08-20T07:04:05;7.07;;;3.95;;
21360;SDS011;10839;43.206;23.550;2023-08-20T07:06:31;4.32;;;3.92;;
21360;SDS011;10839;43.206;23.550;2023-08-20T07:08:57;5.93;;;4.10;;
21360;SDS011;10839;43.206;23.550;2023-08-20T07:11:23;5.95;;;4.18;;
21360;SDS011;10839;43.206;23.550;2023-08-20T07:13:48;5.28;;;4.20;;
21360;SDS011;10839;43.206;23.550;2023-08-20T07:16:15;6.38;;;3.85;;
21360;SDS011;10839;43.206;23.550;2023-08-20T07:18:41;6.78;;;3.92;;
21360;SDS011;10839;43.206;23.550;2023-08-20T07:21:07;9.88;;;5.10;;
21360;SDS011;10839;43.206;23.550;2023-08-20T07:23:33;7.43;;;4.13;;
21360;SDS011;10839;43.206;23.550;2023-08-20T07:26:06;20.25;;;15.50;;
21360;SDS011;10839;43.206;23.550;2023-08-20T07:28:34;17.40;;;13.55;;
21360;SDS011;10839;43.206;23.550;2023-08-20T07:31:19;24.73;;;19.27;;
21360;SDS011;10839;43.206;23.550;2023-08-20T07:33:46;18.02;;;12.82;;
21360;SDS011;10839;43.206;23.550;2023-08-20T07:36:16;12.73;;;8.23;;
21360;SDS011;10839;43.206;23.550;2023-08-20T07:38:42;7.07;;;5.88;;
21360;SDS011;10839;43.206;23.550;2023-08-20T07:41:09;7.22;;;5.32;;
21360;SDS011;10839;43.206;23.550;2023-08-20T07:43:39;8.90;;;4.97;;
21360;SDS011;10839;43.206;23.550;2023-08-20T07:46:06;4.93;;;4.40;;
21360;SDS011;10839;43.206;23.550;2023-08-20T07:48:33;7.75;;;4.57;;
21360;SDS011;10839;43.206;23.550;2023-08-20T07:51:00;6.80;;;4.25;;
21360;SDS011;10839;43.206;23.550;2023-08-20T07:53:26;5.13;;;4.20;;
21360;SDS011;10839;43.206;23.550;2023-08-20T07:55:52;7.38;;;4.50;;
21360;SDS011;10839;43.206;23.550;2023-08-20T07:58:18;8.55;;;3.90;;
21360;SDS011;10839;43.206;23.550;2023-08-20T08:00:44;6.07;;;4.93;;
21360;SDS011;10839;43.206;23.550;2023-08-20T08:03:10;12.55;;;10.77;;
21360;SDS011;10839;43.206;23.550;2023-08-20T08:05:36;23.10;;;20.60;;
21360;SDS011;10839;43.206;23.550;2023-08-20T08:08:02;14.27;;;10.77;;
21360;SDS011;10839;43.206;23.550;2023-08-20T08:10:28;15.50;;;9.00;;
21360;SDS011;10839;43.206;23.550;2023-08-20T08:12:54;17.48;;;13.20;;
21360;SDS011;10839;43.206;23.550;2023-08-20T08:15:20;10.82;;;8.93;;
21360;SDS011;10839;43.206;23.550;2023-08-20T08:17:46;13.68;;;11.43;;
21360;SDS011;10839;43.206;23.550;2023-08-20T08:20:12;10.73;;;8.13;;
21360;SDS011;10839;43.206;23.550;2023-08-20T08:22:38;7.20;;;5.45;;
21360;SDS011;10839;43.206;23.550;2023-08-20T08:25:05;8.95;;;5.43;;
21360;SDS011;10839;43.206;23.550;2023-08-20T08:27:31;6.78;;;5.13;;
21360;SDS011;10839;43.206;23.550;2023-08-20T08:29:57;7.32;;;4.47;;
21360;SDS011;10839;43.206;23.550;2023-08-20T08:32:23;4.80;;;4.00;;
21360;SDS011;10839;43.206;23.550;2023-08-20T08:34:50;4.38;;;3.63;;
21360;SDS011;10839;43.206;23.550;2023-08-20T08:37:15;4.30;;;3.90;;
21360;SDS011;10839;43.206;23.550;2023-08-20T08:39:42;7.90;;;3.97;;
21360;SDS011;10839;43.206;23.550;2023-08-20T08:42:08;6.38;;;3.70;;
21360;SDS011;10839;43.206;23.550;2023-08-20T08:44:37;8.45;;;4.55;;
21360;SDS011;10839;43.206;23.550;2023-08-20T08:47:04;8.73;;;6.40;;
21360;SDS011;10839;43.206;23.550;2023-08-20T08:49:34;21.52;;;16.67;;
21360;SDS011;10839;43.206;23.550;2023-08-20T08:52:00;9.80;;;7.35;;
21360;SDS011;10839;43.206;23.550;2023-08-20T08:54:30;13.98;;;6.68;;
21360;SDS011;10839;43.206;23.550;2023-08-20T08:56:58;10.93;;;6.28;;
21360;SDS011;10839;43.206;23.550;2023-08-20T08:59:23;8.60;;;4.90;;
21360;SDS011;10839;43.206;23.550;2023-08-20T09:01:49;12.13;;;7.18;;
21360;SDS011;10839;43.206;23.550;2023-08-20T09:04:15;20.73;;;16.55;;
21360;SDS011;10839;43.206;23.550;2023-08-20T09:06:45;10.98;;;6.43;;
21360;SDS011;10839;43.206;23.550;2023-08-20T09:09:16;9.52;;;6.03;;
21360;SDS011;10839;43.206;23.550;2023-08-20T09:11:42;6.53;;;5.82;;
21360;SDS011;10839;43.206;23.550;2023-08-20T09:14:08;4.90;;;4.35;;
21360;SDS011;10839;43.206;23.550;2023-08-20T09:16:50;9.05;;;4.68;;
21360;SDS011;10839;43.206;23.550;2023-08-20T09:19:28;5.63;;;4.43;;
21360;SDS011;10839;43.206;23.550;2023-08-20T09:21:58;10.15;;;4.32;;
21360;SDS011;10839;43.206;23.550;2023-08-20T09:24:38;6.63;;;4.38;;
21360;SDS011;10839;43.206;23.550;2023-08-20T09:27:08;5.82;;;5.00;;
21360;SDS011;10839;43.206;23.550;2023-08-20T09:29:43;6.03;;;4.47;;
21360;SDS011;10839;43.206;23.550;2023-08-20T09:32:14;6.25;;;4.47;;
21360;SDS011;10839;43.206;23.550;2023-08-20T09:34:41;8.38;;;4.18;;
21360;SDS011;10839;43.206;23.550;2023-08-20T09:37:08;8.52;;;4.20;;
21360;SDS011;10839;43.206;23.550;2023-08-20T09:39:35;8.00;;;4.60;;
21360;SDS011;10839;43.206;23.550;2023-08-20T09:42:01;9.15;;;4.55;;
21360;SDS011;10839;43.206;23.550;2023-08-20T09:44:33;8.30;;;4.60;;
21360;SDS011;10839;43.206;23.550;2023-08-20T09:47:08;9.18;;;4.60;;
21360;SDS011;10839;43.206;23.550;2023-08-20T09:49:39;7.07;;;4.93;;
21360;SDS011;10839;43.206;23.550;2023-08-20T09:52:06;14.95;;;12.00;;
21360;SDS011;10839;43.206;23.550;2023-08-20T09:57:05;9.27;;;8.20;;
21360;SDS011;10839;43.206;23.550;2023-08-20T09:59:37;8.10;;;5.38;;
21360;SDS011;10839;43.206;23.550;2023-08-20T10:02:05;7.65;;;4.88;;
21360;SDS011;10839;43.206;23.550;2023-08-20T10:04:35;6.53;;;4.85;;
21360;SDS011;10839;43.206;23.550;2023-08-20T10:07:01;6.13;;;4.90;;
21360;SDS011;10839;43.206;23.550;2023-08-20T10:09:28;5.05;;;4.57;;
21360;SDS011;10839;43.206;23.550;2023-08-20T10:11:54;5.57;;;4.35;;
21360;SDS011;10839;43.206;23.550;2023-08-20T10:14:20;5.75;;;4.85;;
21360;SDS011;10839;43.206;23.550;2023-08-20T10:16:46;5.28;;;4.75;;
21360;SDS011;10839;43.206;23.550;2023-08-20T10:19:14;5.57;;;4.70;;
21360;SDS011;10839;43.206;23.550;2023-08-20T10:21:45;7.30;;;4.93;;
21360;SDS011;10839;43.206;23.550;2023-08-20T10:24:18;5.00;;;4.57;;
21360;SDS011;10839;43.206;23.550;2023-08-20T10:26:47;8.35;;;4.65;;
21360;SDS011;10839;43.206;23.550;2023-08-20T10:32:11;5.35;;;4.38;;
21360;SDS011;10839;43.206;23.550;2023-08-20T10:34:38;6.68;;;4.47;;
21360;SDS011;10839;43.206;23.550;2023-08-20T10:37:12;8.07;;;4.93;;
21360;SDS011;10839;43.206;23.550;2023-08-20T10:39:39;7.75;;;4.50;;
21360;SDS011;10839;43.206;23.550;2023-08-20T10:42:08;8.60;;;4.35;;
21360;SDS011;10839;43.206;23.550;2023-08-20T10:44:57;7.88;;;4.78;;
21360;SDS011;10839;43.206;23.550;2023-08-20T10:47:37;4.97;;;4.20;;
21360;SDS011;10839;43.206;23.550;2023-08-20T10:50:08;4.53;;;3.97;;
21360;SDS011;10839;43.206;23.550;2023-08-20T10:52:40;4.63;;;4.05;;
21360;SDS011;10839;43.206;23.550;2023-08-20T10:55:07;4.35;;;3.95;;
21360;SDS011;10839;43.206;23.550;2023-08-20T10:57:35;5.60;;;4.03;;
21360;SDS011;10839;43.206;23.550;2023-08-20T11:00:05;6.30;;;5.20;;
21360;SDS011;10839;43.206;23.550;2023-08-20T11:02:42;8.43;;;4.50;;
21360;SDS011;10839;43.206;23.550;2023-08-20T11:05:16;8.27;;;4.40;;
21360;SDS011;10839;43.206;23.550;2023-08-20T11:07:44;7.82;;;4.40;;
21360;SDS011;10839;43.206;23.550;2023-08-20T11:10:15;4.88;;;3.80;;
21360;SDS011;10839;43.206;23.550;2023-08-20T11:12:47;4.82;;;4.32;;
21360;SDS011;10839;43.206;23.550;2023-08-20T11:15:13;5.15;;;4.63;;
21360;SDS011;10839;43.206;23.550;2023-08-20T11:17:46;12.60;;;4.50;;
21360;SDS011;10839;43.206;23.550;2023-08-20T11:20:16;7.25;;;4.57;;
21360;SDS011;10839;43.206;23.550;2023-08-20T11:22:42;6.10;;;4.22;;
21360;SDS011;10839;43.206;23.550;2023-08-20T11:25:11;5.47;;;4.32;;
21360;SDS011;10839;43.206;23.550;2023-08-20T11:27:41;7.80;;;4.63;;
21360;SDS011;10839;43.206;23.550;2023-08-20T11:30:09;4.72;;;4.20;;
21360;SDS011;10839;43.206;23.550;2023-08-20T11:32:38;6.25;;;4.20;;
21360;SDS011;10839;43.206;23.550;2023-08-20T11:35:07;5.90;;;4.07;;
21360;SDS011;10839;43.206;23.550;2023-08-20T11:37:34;4.88;;;4.32;;
21360;SDS011;10839;43.206;23.550;2023-08-20T11:40:00;6.00;;;4.43;;
21360;SDS011;10839;43.206;23.550;2023-08-20T11:42:26;6.25;;;4.07;;
21360;SDS011;10839;43.206;23.550;2023-08-20T11:44:54;6.43;;;5.00;;
21360;SDS011;10839;43.206;23.550;2023-08-20T11:47:21;14.05;;;9.98;;
21360;SDS011;10839;43.206;23.550;2023-08-20T11:49:47;4.22;;;3.20;;
21360;SDS011;10839;43.206;23.550;2023-08-20T11:52:12;3.63;;;2.92;;
21360;SDS011;10839;43.206;23.550;2023-08-20T11:54:38;3.78;;;3.47;;
21360;SDS011;10839;43.206;23.550;2023-08-20T11:57:05;4.57;;;3.75;;
21360;SDS011;10839;43.206;23.550;2023-08-20T11:59:32;5.55;;;3.80;;
21360;SDS011;10839;43.206;23.550;2023-08-20T12:01:59;4.30;;;3.72;;
21360;SDS011;10839;43.206;23.550;2023-08-20T12:04:29;6.05;;;3.47;;
21360;SDS011;10839;43.206;23.550;2023-08-20T12:07:08;4.03;;;3.58;;
21360;SDS011;10839;43.206;23.550;2023-08-20T12:09:38;5.03;;;3.47;;
21360;SDS011;10839;43.206;23.550;2023-08-20T12:12:05;4.05;;;3.55;;
21360;SDS011;10839;43.206;23.550;2023-08-20T12:14:32;5.03;;;3.67;;
21360;SDS011;10839;43.206;23.550;2023-08-20T12:16:58;4.72;;;3.88;;
21360;SDS011;10839;43.206;23.550;2023-08-20T12:19:24;4.80;;;3.75;;
21360;SDS011;10839;43.206;23.550;2023-08-20T12:21:50;9.32;;;6.35;;
21360;SDS011;10839;43.206;23.550;2023-08-20T12:24:16;10.13;;;6.90;;
21360;SDS011;10839;43.206;23.550;2023-08-20T12:26:44;4.45;;;3.65;;
21360;SDS011;10839;43.206;23.550;2023-08-20T12:29:10;6.13;;;3.72;;
21360;SDS011;10839;43.206;23.550;2023-08-20T12:31:37;4.25;;;3.85;;
21360;SDS011;10839;43.206;23.550;2023-08-20T12:34:05;7.20;;;4.13;;
21360;SDS011;10839;43.206;23.550;2023-08-20T12:36:31;5.07;;;3.90;;
21360;SDS011;10839;43.206;23.550;2023-08-20T12:38:56;8.02;;;4.22;;
21360;SDS011;10839;43.206;23.550;2023-08-20T12:41:22;5.75;;;3.90;;
21360;SDS011;10839;43.206;23.550;2023-08-20T12:43:48;5.10;;;3.92;;
21360;SDS011;10839;43.206;23.550;2023-08-20T12:46:14;9.77;;;6.40;;
21360;SDS011;10839;43.206;23.550;2023-08-20T12:48:40;10.55;;;9.45;;
21360;SDS011;10839;43.206;23.550;2023-08-20T12:51:06;5.95;;;4.90;;
21360;SDS011;10839;43.206;23.550;2023-08-20T12:53:32;5.57;;;3.70;;
21360;SDS011;10839;43.206;23.550;2023-08-20T12:55:58;4.95;;;3.40;;
21360;SDS011;10839;43.206;23.550;2023-08-20T12:58:24;3.92;;;3.28;;
21360;SDS011;10839;43.206;23.550;2023-08-20T13:00:50;5.43;;;3.80;;
21360;SDS011;10839;43.206;23.550;2023-08-20T13:03:17;5.50;;;3.45;;
21360;SDS011;10839;43.206;23.550;2023-08-20T13:05:44;3.67;;;3.35;;
21360;SDS011;10839;43.206;23.550;2023-08-20T13:08:10;4.55;;;3.83;;
21360;SDS011;10839;43.206;23.550;2023-08-20T13:10:39;5.00;;;4.50;;
21360;SDS011;10839;43.206;23.550;2023-08-20T13:13:06;5.43;;;3.67;;
21360;SDS011;10839;43.206;23.550;2023-08-20T13:15:36;5.10;;;3.50;;
21360;SDS011;10839;43.206;23.550;2023-08-20T13:18:03;4.88;;;3.42;;
21360;SDS011;10839;43.206;23.550;2023-08-20T13:20:29;4.05;;;3.65;;
21360;SDS011;10839;43.206;23.550;2023-08-20T13:22:55;3.67;;;3.25;;
21360;SDS011;10839;43.206;23.550;2023-08-20T13:25:21;7.05;;;3.67;;
21360;SDS011;10839;43.206;23.550;2023-08-20T13:27:48;6.25;;;3.50;;
21360;SDS011;10839;43.206;23.550;2023-08-20T13:30:15;4.47;;;3.30;;
21360;SDS011;10839;43.206;23.550;2023-08-20T13:32:41;3.42;;;3.13;;
21360;SDS011;10839;43.206;23.550;2023-08-20T13:35:07;3.15;;;2.90;;
21360;SDS011;10839;43.206;23.550;2023-08-20T13:37:35;4.22;;;3.38;;
21360;SDS011;10839;43.206;23.550;2023-08-20T13:40:01;3.90;;;3.33;;
21360;SDS011;10839;43.206;23.550;2023-08-20T13:42:29;8.98;;;3.63;;
21360;SDS011;10839;43.206;23.550;2023-08-20T13:44:55;5.07;;;3.22;;
21360;SDS011;10839;43.206;23.550;2023-08-20T13:47:21;6.40;;;4.40;;
21360;SDS011;10839;43.206;23.550;2023-08-20T13:49:47;5.53;;;3.30;;
21360;SDS011;10839;43.206;23.550;2023-08-20T13:52:13;6.15;;;3.72;;
21360;SDS011;10839;43.206;23.550;2023-08-20T13:54:38;5.88;;;4.70;;
21360;SDS011;10839;43.206;23.550;2023-08-20T13:57:04;7.20;;;5.35;;
21360;SDS011;10839;43.206;23.550;2023-08-20T13:59:30;7.68;;;4.53;;
21360;SDS011;10839;43.206;23.550;2023-08-20T14:01:57;7.40;;;6.00;;
21360;SDS011;10839;43.206;23.550;2023-08-20T14:04:24;8.88;;;6.50;;
21360;SDS011;10839;43.206;23.550;2023-08-20T14:06:50;7.32;;;5.20;;
21360;SDS011;10839;43.206;23.550;2023-08-20T14:09:16;4.72;;;3.50;;
21360;SDS011;10839;43.206;23.550;2023-08-20T14:11:45;7.72;;;3.80;;
21360;SDS011;10839;43.206;23.550;2023-08-20T14:14:11;6.60;;;5.20;;
21360;SDS011;10839;43.206;23.550;2023-08-20T14:16:37;7.95;;;4.13;;
21360;SDS011;10839;43.206;23.550;2023-08-20T14:19:03;5.63;;;3.65;;
21360;SDS011;10839;43.206;23.550;2023-08-20T14:21:29;5.78;;;4.32;;
21360;SDS011;10839;43.206;23.550;2023-08-20T14:23:54;5.05;;;4.40;;
21360;SDS011;10839;43.206;23.550;2023-08-20T14:26:20;4.68;;;3.90;;
21360;SDS011;10839;43.206;23.550;2023-08-20T14:28:46;5.68;;;3.85;;
21360;SDS011;10839;43.206;23.550;2023-08-20T14:31:12;3.60;;;3.13;;
21360;SDS011;10839;43.206;23.550;2023-08-20T14:33:38;10.13;;;8.27;;
21360;SDS011;10839;43.206;23.550;2023-08-20T14:36:04;7.40;;;5.88;;
21360;SDS011;10839;43.206;23.550;2023-08-20T14:38:30;9.70;;;5.43;;
21360;SDS011;10839;43.206;23.550;2023-08-20T14:41:00;9.93;;;5.63;;
21360;SDS011;10839;43.206;23.550;2023-08-20T14:43:27;5.97;;;4.70;;
21360;SDS011;10839;43.206;23.550;2023-08-20T14:45:53;6.75;;;3.65;;